Time;durP1;ratioP1;P1;durP2;ratioP2;P2;SDS_P1;SDS_P2;PMS_P1;PMS_P2;Temp;Humidity;BMP_temperature;BMP_pressure;BME280_temperature;BME280_humidity;BME280_pressure;Samples;Min_cycle;Max_cycle;Signal;HPM_P1;HPM_P2
2023/05/05 00:01:53;;;;;;;8.45;6.72;;;;;;;;;;5022336;28;20105;-79
2023/05/05 00:04:21;;;;;;;7.65;6.93;;;;;;;;;;4993455;28;20455;-78
2023/05/05 00:06:47;;;;;;;9.07;7.35;;;;;;;;;;5026660;28;20033;-79
2023/05/05 00:09:13;;;;;;;9.18;6.95;;;;;;;;;;5026125;28;20049;-78
2023/05/05 00:11:38;;;;;;;9.07;7.25;;;;;;;;;;5027342;28;20033;-78
2023/05/05 00:14:04;;;;;;;11.55;6.88;;;;;;;;;;5027346;28;20064;-79
2023/05/05 00:16:30;;;;;;;7.30;6.70;;;;;;;;;;5027520;28;20045;-80
2023/05/05 00:18:56;;;;;;;8.32;7.53;;;;;;;;;;5024099;28;20041;-77
2023/05/05 00:21:21;;;;;;;9.88;6.95;;;;;;;;;;5003359;28;20613;-78
2023/05/05 00:23:47;;;;;;;8.18;7.10;;;;;;;;;;4991411;28;20124;-79
2023/05/05 00:26:13;;;;;;;10.75;7.22;;;;;;;;;;5025411;28;20377;-79
2023/05/05 00:28:38;;;;;;;9.32;7.45;;;;;;;;;;5027846;28;20037;-78
2023/05/05 00:31:04;;;;;;;8.00;7.20;;;;;;;;;;4994452;28;20029;-80
2023/05/05 00:33:30;;;;;;;8.00;6.72;;;;;;;;;;5023242;28;20569;-79
2023/05/05 00:35:55;;;;;;;7.85;7.03;;;;;;;;;;5028477;28;20140;-78
2023/05/05 00:38:21;;;;;;;7.50;6.78;;;;;;;;;;5008188;28;20041;-79
2023/05/05 00:40:46;;;;;;;9.13;7.20;;;;;;;;;;5028084;28;20113;-78
2023/05/05 00:43:12;;;;;;;7.65;6.85;;;;;;;;;;5004741;28;20041;-78
2023/05/05 00:45:41;;;;;;;8.07;7.28;;;;;;;;;;5013318;28;20068;-78
2023/05/05 00:48:08;;;;;;;9.35;6.90;;;;;;;;;;5025129;28;20095;-79
2023/05/05 00:50:33;;;;;;;7.18;6.47;;;;;;;;;;4992963;28;20045;-79
2023/05/05 00:53:01;;;;;;;8.55;7.50;;;;;;;;;;4994576;28;20423;-78
2023/05/05 00:55:31;;;;;;;7.65;6.63;;;;;;;;;;5022489;28;20428;-79
2023/05/05 00:57:58;;;;;;;8.02;7.25;;;;;;;;;;5009447;28;20064;-77
2023/05/05 01:00:24;;;;;;;7.63;6.93;;;;;;;;;;5026244;28;20485;-77
2023/05/05 01:02:50;;;;;;;9.65;7.60;;;;;;;;;;5010664;28;20044;-78
2023/05/05 01:05:17;;;;;;;8.45;7.57;;;;;;;;;;5009520;28;20045;-78
2023/05/05 01:08:04;;;;;;;7.70;7.00;;;;;;;;;;4999716;28;20033;-78
2023/05/05 01:10:37;;;;;;;7.32;6.68;;;;;;;;;;5008545;28;20116;-78
2023/05/05 01:13:24;;;;;;;6.60;5.90;;;;;;;;;;5010118;28;20096;-79
2023/05/05 01:16:32;;;;;;;11.50;6.68;;;;;;;;;;5024744;28;20068;-77
2023/05/05 01:19:28;;;;;;;8.30;7.07;;;;;;;;;;5019128;28;20046;-78
2023/05/05 01:22:00;;;;;;;7.63;6.93;;;;;;;;;;4993492;28;20052;-79
2023/05/05 01:24:53;;;;;;;8.23;6.55;;;;;;;;;;5025280;28;20484;-78
2023/05/05 01:27:46;;;;;;;6.47;5.93;;;;;;;;;;5010236;28;20030;-78
2023/05/05 01:30:56;;;;;;;9.05;7.00;;;;;;;;;;5005650;28;20029;-78
2023/05/05 01:33:26;;;;;;;7.20;6.60;;;;;;;;;;5002108;28;20045;-79
2023/05/05 01:36:01;;;;;;;18.33;7.57;;;;;;;;;;5008991;28;20038;-78
2023/05/05 01:38:35;;;;;;;9.60;7.38;;;;;;;;;;4987757;28;20052;-78
2023/05/05 01:41:11;;;;;;;7.13;6.53;;;;;;;;;;5007514;28;20033;-78
2023/05/05 01:43:37;;;;;;;6.45;5.95;;;;;;;;;;5009918;28;20030;-77
2023/05/05 01:46:06;;;;;;;10.00;6.47;;;;;;;;;;5010079;28;20033;-79
2023/05/05 01:48:32;;;;;;;8.13;7.32;;;;;;;;;;5007782;28;20033;-78
2023/05/05 01:51:00;;;;;;;10.63;7.78;;;;;;;;;;4993345;28;20048;-78
2023/05/05 01:53:26;;;;;;;8.20;7.47;;;;;;;;;;5041263;28;20132;-79
2023/05/05 01:55:53;;;;;;;7.90;7.10;;;;;;;;;;5024165;28;20189;-78
2023/05/05 01:58:21;;;;;;;7.60;6.28;;;;;;;;;;5003796;28;20091;-78
2023/05/05 02:00:47;;;;;;;9.50;7.38;;;;;;;;;;5010702;28;20041;-77
2023/05/05 02:03:14;;;;;;;7.88;7.18;;;;;;;;;;4991216;28;20033;-78
2023/05/05 02:05:42;;;;;;;10.70;7.53;;;;;;;;;;5007166;28;20112;-78
2023/05/05 02:08:10;;;;;;;8.57;7.78;;;;;;;;;;5009109;28;20400;-78
2023/05/05 02:10:39;;;;;;;7.82;7.03;;;;;;;;;;5008491;28;20104;-78
2023/05/05 02:13:05;;;;;;;7.82;7.18;;;;;;;;;;5007955;28;20038;-78
2023/05/05 02:15:32;;;;;;;8.30;7.45;;;;;;;;;;5005928;28;20043;-78
2023/05/05 02:18:00;;;;;;;8.13;7.32;;;;;;;;;;5014218;28;20043;-78
2023/05/05 02:20:29;;;;;;;8.10;7.38;;;;;;;;;;5026455;28;20033;-78
2023/05/05 02:22:55;;;;;;;7.40;6.82;;;;;;;;;;4999618;28;20113;-78
2023/05/05 02:25:25;;;;;;;8.90;8.07;;;;;;;;;;5032574;28;20037;-78
2023/05/05 02:27:54;;;;;;;9.15;8.25;;;;;;;;;;5006241;28;20128;-78
2023/05/05 02:30:21;;;;;;;8.52;7.82;;;;;;;;;;5033991;28;20037;-79
2023/05/05 02:32:54;;;;;;;7.90;7.10;;;;;;;;;;5033772;28;20124;-76
2023/05/05 02:35:33;;;;;;;8.55;7.60;;;;;;;;;;5015396;28;20037;-76
2023/05/05 02:38:04;;;;;;;7.95;7.15;;;;;;;;;;5010260;28;20116;-78
2023/05/05 02:40:36;;;;;;;8.88;7.72;;;;;;;;;;5008430;28;20049;-77
2023/05/05 02:43:06;;;;;;;7.57;6.97;;;;;;;;;;5011158;28;20518;-75
2023/05/05 02:45:32;;;;;;;8.80;7.90;;;;;;;;;;5003283;28;20041;-76
2023/05/05 02:48:03;;;;;;;7.18;6.57;;;;;;;;;;5005423;28;20029;-78
2023/05/05 02:50:31;;;;;;;7.63;6.85;;;;;;;;;;5007835;28;20128;-78
2023/05/05 02:53:08;;;;;;;8.52;7.18;;;;;;;;;;5009054;28;20038;-77
2023/05/05 02:55:51;;;;;;;7.07;6.47;;;;;;;;;;5005813;28;20074;-78
2023/05/05 02:58:30;;;;;;;8.38;7.57;;;;;;;;;;4994423;28;20044;-78
2023/05/05 03:01:26;;;;;;;8.60;7.82;;;;;;;;;;5002143;28;20498;-76
2023/05/05 03:04:06;;;;;;;8.45;7.65;;;;;;;;;;4995979;28;20034;-77
2023/05/05 03:06:41;;;;;;;8.00;7.30;;;;;;;;;;5007219;28;20037;-76
2023/05/05 03:09:26;;;;;;;7.68;6.97;;;;;;;;;;4993134;28;20044;-77
2023/05/05 03:12:00;;;;;;;8.40;7.57;;;;;;;;;;5007524;28;20044;-78
2023/05/05 03:14:28;;;;;;;8.45;7.22;;;;;;;;;;5043387;28;20542;-77
2023/05/05 03:16:55;;;;;;;8.80;7.87;;;;;;;;;;5012841;28;20068;-76
2023/05/05 03:19:23;;;;;;;7.70;7.00;;;;;;;;;;5027960;28;20501;-76
2023/05/05 03:21:53;;;;;;;9.35;8.15;;;;;;;;;;5007894;28;20072;-78
2023/05/05 03:24:20;;;;;;;7.82;7.03;;;;;;;;;;5005321;28;20057;-78
2023/05/05 03:26:56;;;;;;;8.40;7.57;;;;;;;;;;5007924;28;20064;-78
2023/05/05 03:29:28;;;;;;;13.45;7.65;;;;;;;;;;5010644;28;20067;-76
2023/05/05 03:31:55;;;;;;;10.65;7.75;;;;;;;;;;5012302;28;20124;-79
2023/05/05 03:34:20;;;;;;;8.50;7.47;;;;;;;;;;5030132;28;20033;-78
2023/05/05 03:36:47;;;;;;;7.50;6.90;;;;;;;;;;5012374;28;20060;-77
2023/05/05 03:39:14;;;;;;;9.35;8.05;;;;;;;;;;5006972;28;20459;-77
2023/05/05 03:41:40;;;;;;;8.43;7.20;;;;;;;;;;5027257;28;20038;-77
2023/05/05 03:44:07;;;;;;;8.10;7.22;;;;;;;;;;5012343;28;20090;-75
2023/05/05 03:46:34;;;;;;;7.95;7.15;;;;;;;;;;5010260;28;20064;-76
2023/05/05 03:49:00;;;;;;;7.85;7.10;;;;;;;;;;5005663;28;20037;-76
2023/05/05 03:51:27;;;;;;;7.53;6.85;;;;;;;;;;5011966;28;20029;-75
2023/05/05 03:53:53;;;;;;;7.55;6.85;;;;;;;;;;5006183;28;20044;-76
2023/05/05 03:56:19;;;;;;;8.18;7.47;;;;;;;;;;5001637;28;20034;-76
2023/05/05 03:58:44;;;;;;;9.82;7.18;;;;;;;;;;5010821;28;20083;-76
2023/05/05 04:01:11;;;;;;;8.32;7.53;;;;;;;;;;5010439;28;20037;-78
2023/05/05 04:03:38;;;;;;;7.22;6.57;;;;;;;;;;5012198;28;20033;-75
2023/05/05 04:06:04;;;;;;;9.48;8.10;;;;;;;;;;5011070;28;20674;-75
2023/05/05 04:08:31;;;;;;;8.10;7.28;;;;;;;;;;5010118;28;20047;-76
2023/05/05 04:10:57;;;;;;;8.15;7.43;;;;;;;;;;5012345;28;20033;-76
2023/05/05 04:13:23;;;;;;;8.68;7.95;;;;;;;;;;5008642;28;20069;-76
2023/05/05 04:15:48;;;;;;;12.52;8.43;;;;;;;;;;5011185;28;20107;-76
2023/05/05 04:18:16;;;;;;;8.57;7.82;;;;;;;;;;5028997;28;20041;-76
2023/05/05 04:20:42;;;;;;;9.82;8.05;;;;;;;;;;5011148;28;20038;-76
2023/05/05 04:23:08;;;;;;;8.50;7.70;;;;;;;;;;5010148;28;20108;-78
2023/05/05 04:25:34;;;;;;;8.05;7.35;;;;;;;;;;5003716;28;20050;-76
2023/05/05 04:28:00;;;;;;;8.63;7.85;;;;;;;;;;5009402;28;20416;-77
2023/05/05 04:30:26;;;;;;;9.15;8.32;;;;;;;;;;5020757;28;20053;-78
2023/05/05 04:32:52;;;;;;;9.60;8.23;;;;;;;;;;5006712;28;20056;-76
2023/05/05 04:35:17;;;;;;;8.77;7.88;;;;;;;;;;5005522;28;20041;-76
2023/05/05 04:37:46;;;;;;;8.80;8.00;;;;;;;;;;5011875;28;20029;-75
2023/05/05 04:40:12;;;;;;;8.75;7.93;;;;;;;;;;5011167;28;20519;-75
2023/05/05 04:42:39;;;;;;;9.55;8.40;;;;;;;;;;5009112;28;20520;-76
2023/05/05 04:45:05;;;;;;;8.77;7.88;;;;;;;;;;5009323;28;20041;-76
2023/05/05 04:47:36;;;;;;;8.18;7.47;;;;;;;;;;5011082;28;20136;-74
2023/05/05 04:50:01;;;;;;;10.15;7.22;;;;;;;;;;5028293;28;20041;-74
2023/05/05 04:52:28;;;;;;;7.78;7.15;;;;;;;;;;5009762;28;20067;-73
2023/05/05 04:54:53;;;;;;;9.35;8.45;;;;;;;;;;5028376;28;20061;-76
2023/05/05 04:57:19;;;;;;;9.82;8.77;;;;;;;;;;5010608;28;20051;-74
2023/05/05 04:59:45;;;;;;;7.60;6.90;;;;;;;;;;4992924;28;20037;-73
2023/05/05 05:02:11;;;;;;;7.85;7.15;;;;;;;;;;5016612;28;20528;-73
2023/05/05 05:04:37;;;;;;;8.80;7.90;;;;;;;;;;5028498;28;20128;-73
2023/05/05 05:07:02;;;;;;;8.63;7.80;;;;;;;;;;5010664;28;20108;-73
2023/05/05 05:09:28;;;;;;;8.13;7.47;;;;;;;;;;5009188;28;20038;-77
2023/05/05 05:11:58;;;;;;;9.98;7.50;;;;;;;;;;5028153;28;20034;-73
2023/05/05 05:14:24;;;;;;;8.70;7.95;;;;;;;;;;5011068;28;20484;-73
2023/05/05 05:16:51;;;;;;;7.57;6.93;;;;;;;;;;5009754;28;21674;-74
2023/05/05 05:19:16;;;;;;;9.80;7.80;;;;;;;;;;5010310;28;20032;-76
2023/05/05 05:21:42;;;;;;;7.95;7.25;;;;;;;;;;5005402;28;20374;-74
2023/05/05 05:24:09;;;;;;;8.00;7.30;;;;;;;;;;5005695;28;20042;-73
2023/05/05 05:26:36;;;;;;;8.23;7.43;;;;;;;;;;5010112;28;20491;-73
2023/05/05 05:29:03;;;;;;;7.53;6.93;;;;;;;;;;5008602;28;20401;-73
2023/05/05 05:31:29;;;;;;;7.22;6.63;;;;;;;;;;5019593;28;20033;-78
2023/05/05 05:33:55;;;;;;;7.75;7.05;;;;;;;;;;5010432;28;20531;-74
2023/05/05 05:36:21;;;;;;;8.48;7.68;;;;;;;;;;5008170;28;20039;-74
2023/05/05 05:38:47;;;;;;;7.95;7.25;;;;;;;;;;5010002;28;20116;-75
2023/05/05 05:41:14;;;;;;;8.50;7.45;;;;;;;;;;5009932;28;20096;-77
2023/05/05 05:43:40;;;;;;;7.90;7.20;;;;;;;;;;5009967;28;20030;-75
2023/05/05 05:46:06;;;;;;;8.02;7.32;;;;;;;;;;4990012;28;20038;-75
2023/05/05 05:48:32;;;;;;;7.43;6.78;;;;;;;;;;5009060;28;20038;-75
2023/05/05 05:50:58;;;;;;;8.27;7.57;;;;;;;;;;5010154;28;20032;-75
2023/05/05 05:53:24;;;;;;;8.02;7.43;;;;;;;;;;5007050;28;20528;-78
2023/05/05 05:55:51;;;;;;;9.02;8.10;;;;;;;;;;5008851;28;20035;-76
2023/05/05 05:58:18;;;;;;;8.27;7.60;;;;;;;;;;5009277;28;20064;-77
2023/05/05 06:00:44;;;;;;;8.40;7.60;;;;;;;;;;5008068;28;20095;-76
2023/05/05 06:03:10;;;;;;;9.55;7.70;;;;;;;;;;5022184;28;20040;-74
2023/05/05 06:05:37;;;;;;;8.00;7.40;;;;;;;;;;5009324;28;20033;-74
2023/05/05 06:08:03;;;;;;;8.07;7.38;;;;;;;;;;5009594;28;20064;-74
2023/05/05 06:10:31;;;;;;;8.17;6.57;;;;;;;;;;5004449;28;20481;-74
2023/05/05 06:13:04;;;;;;;7.80;7.07;;;;;;;;;;5008454;28;20041;-76
2023/05/05 06:15:31;;;;;;;8.05;7.35;;;;;;;;;;5009356;28;20041;-74
2023/05/05 06:17:58;;;;;;;9.25;6.90;;;;;;;;;;5009111;28;20038;-77
2023/05/05 06:20:25;;;;;;;8.02;7.32;;;;;;;;;;5009271;28;20076;-76
2023/05/05 06:22:50;;;;;;;7.85;6.85;;;;;;;;;;5025058;28;20060;-77
2023/05/05 06:25:16;;;;;;;8.07;7.28;;;;;;;;;;5026203;28;20069;-73
2023/05/05 06:27:42;;;;;;;7.40;6.80;;;;;;;;;;5008627;28;20041;-75
2023/05/05 06:30:09;;;;;;;13.23;7.30;;;;;;;;;;5022716;28;20427;-75
2023/05/05 06:32:34;;;;;;;8.50;7.80;;;;;;;;;;5024329;28;20037;-74
2023/05/05 06:35:00;;;;;;;8.05;7.25;;;;;;;;;;5025612;28;20037;-74
2023/05/05 06:37:25;;;;;;;7.95;7.18;;;;;;;;;;5022967;28;20087;-77
2023/05/05 06:39:51;;;;;;;20.77;8.20;;;;;;;;;;5007185;28;20029;-76
2023/05/05 06:42:16;;;;;;;8.18;7.53;;;;;;;;;;4987841;28;20403;-73
2023/05/05 06:44:44;;;;;;;12.82;7.90;;;;;;;;;;4994826;28;20083;-76
2023/05/05 06:47:10;;;;;;;8.50;7.70;;;;;;;;;;5024903;28;20121;-78
2023/05/05 06:49:36;;;;;;;8.68;7.45;;;;;;;;;;5026270;28;20108;-76
2023/05/05 06:52:01;;;;;;;29.77;9.50;;;;;;;;;;5025060;28;20076;-74
2023/05/05 06:54:27;;;;;;;50.42;10.05;;;;;;;;;;5037176;28;20060;-74
2023/05/05 06:56:52;;;;;;;13.32;8.20;;;;;;;;;;5028946;28;20037;-77
2023/05/05 06:59:18;;;;;;;12.98;7.97;;;;;;;;;;5023738;28;20033;-78
2023/05/05 07:01:44;;;;;;;19.00;8.68;;;;;;;;;;5024713;28;20040;-77
2023/05/05 07:04:10;;;;;;;10.07;7.78;;;;;;;;;;5024634;28;20479;-74
2023/05/05 07:06:35;;;;;;;13.90;8.07;;;;;;;;;;5024619;28;20040;-76
2023/05/05 07:09:02;;;;;;;48.88;10.35;;;;;;;;;;5023454;28;20033;-77
2023/05/05 07:11:27;;;;;;;15.25;7.68;;;;;;;;;;5042562;28;20041;-75
2023/05/05 07:13:53;;;;;;;7.88;7.07;;;;;;;;;;5027897;28;20048;-78
2023/05/05 07:16:18;;;;;;;7.82;6.97;;;;;;;;;;5007965;28;20125;-75
2023/05/05 07:18:44;;;;;;;9.77;7.05;;;;;;;;;;5026206;28;20041;-75
2023/05/05 07:21:10;;;;;;;8.90;6.55;;;;;;;;;;5033587;28;20063;-77
2023/05/05 07:23:36;;;;;;;7.60;6.90;;;;;;;;;;5008738;28;20033;-78
2023/05/05 07:26:02;;;;;;;9.40;6.88;;;;;;;;;;5026361;28;20033;-76
2023/05/05 07:28:28;;;;;;;6.60;6.00;;;;;;;;;;5009889;28;20048;-76
2023/05/05 07:30:54;;;;;;;6.38;5.63;;;;;;;;;;5024540;28;20042;-79
2023/05/05 07:33:19;;;;;;;10.48;6.47;;;;;;;;;;5020337;28;20049;-76
2023/05/05 07:35:45;;;;;;;6.82;6.22;;;;;;;;;;5026841;28;20048;-80
2023/05/05 07:38:11;;;;;;;8.77;6.68;;;;;;;;;;5026913;28;20494;-74
2023/05/05 07:40:36;;;;;;;7.72;7.03;;;;;;;;;;5027769;28;20529;-76
2023/05/05 07:43:02;;;;;;;7.63;6.93;;;;;;;;;;5025836;28;20911;-77
2023/05/05 07:45:28;;;;;;;7.40;6.53;;;;;;;;;;5024276;28;20044;-78
2023/05/05 07:47:53;;;;;;;10.85;6.50;;;;;;;;;;5026547;28;20132;-78
2023/05/05 07:50:19;;;;;;;7.88;6.50;;;;;;;;;;5025023;28;20768;-74
2023/05/05 07:52:45;;;;;;;8.93;6.28;;;;;;;;;;5023532;28;20038;-76
2023/05/05 07:55:11;;;;;;;6.47;5.97;;;;;;;;;;5027443;28;20044;-77
2023/05/05 07:57:37;;;;;;;7.13;6.47;;;;;;;;;;5027785;28;20068;-78
2023/05/05 08:00:03;;;;;;;8.73;6.00;;;;;;;;;;5028326;28;20029;-77
2023/05/05 08:02:37;;;;;;;7.13;5.43;;;;;;;;;;5010163;28;20033;-76
2023/05/05 08:05:03;;;;;;;6.38;5.88;;;;;;;;;;5027742;28;20041;-77
2023/05/05 08:07:29;;;;;;;9.65;5.85;;;;;;;;;;5025433;28;20045;-77
2023/05/05 08:09:54;;;;;;;5.75;5.35;;;;;;;;;;5020271;28;20264;-76
2023/05/05 08:12:20;;;;;;;5.60;5.15;;;;;;;;;;5027258;28;20049;-76
2023/05/05 08:14:46;;;;;;;5.88;5.47;;;;;;;;;;5021118;28;20037;-74
2023/05/05 08:17:11;;;;;;;5.82;5.43;;;;;;;;;;5025952;28;20038;-76
2023/05/05 08:19:37;;;;;;;5.47;5.10;;;;;;;;;;5024474;28;20047;-77
2023/05/05 08:22:02;;;;;;;5.70;5.20;;;;;;;;;;5026672;28;20469;-77
2023/05/05 08:24:28;;;;;;;5.80;5.30;;;;;;;;;;5027228;28;20036;-77
2023/05/05 08:26:54;;;;;;;5.75;5.25;;;;;;;;;;5020965;28;20507;-77
2023/05/05 08:29:20;;;;;;;6.05;5.45;;;;;;;;;;5006856;28;20448;-76
2023/05/05 08:31:46;;;;;;;5.70;5.30;;;;;;;;;;5029632;28;20037;-77
2023/05/05 08:34:11;;;;;;;5.45;5.15;;;;;;;;;;5026611;28;20044;-76
2023/05/05 08:36:37;;;;;;;10.88;5.35;;;;;;;;;;5018413;28;20056;-76
2023/05/05 08:39:03;;;;;;;6.22;5.82;;;;;;;;;;5025141;28;20574;-75
2023/05/05 08:41:29;;;;;;;6.15;5.75;;;;;;;;;;5021569;28;20060;-76
2023/05/05 08:43:55;;;;;;;6.50;6.10;;;;;;;;;;5026566;28;20029;-77
2023/05/05 08:46:21;;;;;;;6.55;5.95;;;;;;;;;;5026564;28;20091;-76
2023/05/05 08:48:47;;;;;;;5.90;5.50;;;;;;;;;;5023591;28;20045;-75
2023/05/05 08:51:18;;;;;;;6.32;5.93;;;;;;;;;;5026365;28;20044;-76
2023/05/05 08:53:52;;;;;;;6.30;5.90;;;;;;;;;;5025192;28;20041;-76
2023/05/05 08:56:20;;;;;;;6.43;5.90;;;;;;;;;;5024125;28;20045;-78
2023/05/05 08:58:47;;;;;;;6.28;5.88;;;;;;;;;;5033451;28;20049;-77
2023/05/05 09:01:16;;;;;;;6.90;5.82;;;;;;;;;;5028823;28;20038;-77
2023/05/05 09:03:43;;;;;;;5.97;5.57;;;;;;;;;;5006934;28;20025;-76
2023/05/05 09:06:09;;;;;;;5.75;5.45;;;;;;;;;;5008318;28;20547;-76
2023/05/05 09:08:38;;;;;;;6.25;5.80;;;;;;;;;;5012437;28;20042;-76
2023/05/05 09:11:05;;;;;;;;;;;;;;;;;;5029112;28;20124;-77
2023/05/05 09:13:31;;;;;;;6.30;5.70;;;;;;;;;;5019802;28;20536;-76
2023/05/05 09:15:58;;;;;;;6.28;5.78;;;;;;;;;;5028333;28;20072;-77
2023/05/05 09:18:26;;;;;;;6.38;5.88;;;;;;;;;;5025906;28;20025;-77
2023/05/05 09:20:51;;;;;;;5.90;5.30;;;;;;;;;;5031857;28;20029;-77
2023/05/05 09:23:19;;;;;;;6.28;5.68;;;;;;;;;;5033797;28;20033;-76
2023/05/05 09:26:07;;;;;;;6.00;5.38;;;;;;;;;;5025784;28;20088;-76
2023/05/05 09:28:33;;;;;;;5.55;5.15;;;;;;;;;;5030278;28;20067;-77
2023/05/05 09:31:14;;;;;;;5.90;5.50;;;;;;;;;;4994460;28;20582;-78
2023/05/05 09:33:40;;;;;;;5.50;5.15;;;;;;;;;;5032176;28;20038;-76
2023/05/05 09:36:06;;;;;;;5.38;4.97;;;;;;;;;;5028381;28;20041;-76
2023/05/05 09:38:34;;;;;;;5.70;5.30;;;;;;;;;;5030278;28;20064;-76
2023/05/05 09:40:59;;;;;;;5.60;5.20;;;;;;;;;;5025730;28;20084;-77
2023/05/05 09:43:25;;;;;;;6.05;5.55;;;;;;;;;;5028262;28;20483;-77
2023/05/05 09:46:04;;;;;;;5.63;5.15;;;;;;;;;;5005727;28;20030;-76
2023/05/05 09:48:31;;;;;;;5.43;5.03;;;;;;;;;;5024367;28;20075;-77
2023/05/05 09:50:58;;;;;;;5.93;5.43;;;;;;;;;;5032764;28;20029;-77
2023/05/05 09:53:25;;;;;;;5.95;5.45;;;;;;;;;;5028958;28;20042;-76
2023/05/05 09:55:53;;;;;;;5.32;4.93;;;;;;;;;;5014960;28;20156;-77
2023/05/05 09:58:27;;;;;;;5.32;4.97;;;;;;;;;;5009157;28;20032;-77
2023/05/05 10:00:54;;;;;;;5.60;5.20;;;;;;;;;;5022435;28;20040;-78
2023/05/05 10:03:20;;;;;;;5.95;5.07;;;;;;;;;;5023263;28;20497;-76
2023/05/05 10:05:50;;;;;;;5.60;5.10;;;;;;;;;;5021933;28;20041;-76
2023/05/05 10:08:27;;;;;;;5.68;5.20;;;;;;;;;;5024638;28;20076;-78
2023/05/05 10:10:55;;;;;;;5.10;4.75;;;;;;;;;;5025856;28;20484;-77
2023/05/05 10:13:23;;;;;;;4.70;4.40;;;;;;;;;;5024231;28;20108;-76
2023/05/05 10:15:50;;;;;;;5.45;5.05;;;;;;;;;;5023966;28;20395;-78
2023/05/05 10:18:25;;;;;;;4.65;4.35;;;;;;;;;;5024284;28;20029;-76
2023/05/05 10:20:56;;;;;;;4.68;4.38;;;;;;;;;;5019206;28;20026;-76
2023/05/05 10:23:23;;;;;;;5.10;4.70;;;;;;;;;;5012127;28;20030;-77
2023/05/05 10:25:53;;;;;;;5.22;4.80;;;;;;;;;;5024249;28;20114;-77
2023/05/05 10:28:30;;;;;;;5.00;4.50;;;;;;;;;;5024481;28;20088;-77
2023/05/05 10:30:58;;;;;;;4.55;4.00;;;;;;;;;;5022439;28;20041;-76
2023/05/05 10:33:32;;;;;;;4.32;4.00;;;;;;;;;;5024797;28;20671;-76
2023/05/05 10:36:01;;;;;;;4.78;4.18;;;;;;;;;;5021291;28;20039;-77
2023/05/05 10:38:29;;;;;;;4.40;4.10;;;;;;;;;;5022835;28;20492;-75
2023/05/05 10:40:56;;;;;;;4.55;4.25;;;;;;;;;;5020906;28;20056;-75
2023/05/05 10:43:23;;;;;;;4.65;4.25;;;;;;;;;;5027831;28;20033;-76
2023/05/05 10:45:49;;;;;;;4.40;4.10;;;;;;;;;;5010416;28;20033;-75
2023/05/05 10:48:23;;;;;;;4.72;4.28;;;;;;;;;;5024719;28;20040;-75
2023/05/05 10:50:57;;;;;;;4.95;4.60;;;;;;;;;;5026673;28;20041;-74
2023/05/05 10:53:41;;;;;;;4.40;4.10;;;;;;;;;;5018237;28;20145;-75
2023/05/05 10:56:26;;;;;;;4.60;4.30;;;;;;;;;;5019105;28;20045;-76
2023/05/05 10:58:52;;;;;;;4.30;4.00;;;;;;;;;;5019119;28;20040;-75
2023/05/05 11:01:31;;;;;;;4.70;4.03;;;;;;;;;;5018824;28;20037;-74
2023/05/05 11:04:16;;;;;;;4.43;4.20;;;;;;;;;;5005469;28;20030;-75
2023/05/05 11:07:07;;;;;;;4.93;4.50;;;;;;;;;;5022330;28;20061;-75
2023/05/05 11:09:40;;;;;;;4.65;4.35;;;;;;;;;;5024539;28;20093;-76
2023/05/05 11:12:07;;;;;;;4.45;4.10;;;;;;;;;;5021053;28;20045;-75
2023/05/05 11:14:33;;;;;;;4.82;4.53;;;;;;;;;;5007061;28;20668;-75
2023/05/05 11:16:58;;;;;;;4.47;4.18;;;;;;;;;;5023217;28;20033;-75
2023/05/05 11:19:42;;;;;;;4.40;4.20;;;;;;;;;;5025482;28;20041;-75
2023/05/05 11:22:08;;;;;;;4.50;4.20;;;;;;;;;;5023635;28;20041;-75
2023/05/05 11:24:38;;;;;;;4.90;4.60;;;;;;;;;;5027265;28;20052;-75
2023/05/05 11:27:04;;;;;;;5.38;4.57;;;;;;;;;;5028866;28;20045;-75
2023/05/05 11:30:08;;;;;;;4.78;4.47;;;;;;;;;;5028697;28;20408;-75
2023/05/05 11:32:33;;;;;;;4.57;4.25;;;;;;;;;;5028612;28;20038;-76
2023/05/05 11:35:00;;;;;;;4.38;4.18;;;;;;;;;;5012513;28;20102;-73
2023/05/05 11:37:28;;;;;;;4.70;4.40;;;;;;;;;;5027476;28;20064;-80
2023/05/05 11:40:12;;;;;;;4.60;4.30;;;;;;;;;;5027249;28;20112;-80
2023/05/05 11:42:38;;;;;;;4.90;4.60;;;;;;;;;;5025510;28;20492;-79
2023/05/05 11:45:21;;;;;;;4.82;4.47;;;;;;;;;;5027539;28;20084;-79
2023/05/05 11:47:47;;;;;;;4.88;4.57;;;;;;;;;;5026560;28;20041;-77
2023/05/05 11:50:20;;;;;;;4.75;4.45;;;;;;;;;;5021233;28;20041;-78
2023/05/05 11:52:46;;;;;;;4.90;4.60;;;;;;;;;;5027274;28;20045;-78
2023/05/05 11:55:18;;;;;;;4.55;4.25;;;;;;;;;;5009280;28;20052;-79
2023/05/05 11:57:44;;;;;;;4.88;4.57;;;;;;;;;;5026870;28;20039;-80
2023/05/05 12:00:10;;;;;;;5.18;4.70;;;;;;;;;;5024492;28;20400;-78
2023/05/05 12:02:36;;;;;;;5.13;4.72;;;;;;;;;;5024191;28;20087;-79
2023/05/05 12:05:02;;;;;;;4.78;4.47;;;;;;;;;;5023834;28;20034;-78
2023/05/05 12:07:30;;;;;;;4.80;4.47;;;;;;;;;;4993039;28;20047;-78
2023/05/05 12:09:55;;;;;;;4.90;4.40;;;;;;;;;;5026385;28;20041;-74
2023/05/05 12:12:39;;;;;;;5.05;4.50;;;;;;;;;;5023776;28;20041;-74
2023/05/05 12:15:06;;;;;;;5.45;5.05;;;;;;;;;;5023889;28;20534;-77
2023/05/05 12:17:44;;;;;;;4.50;4.30;;;;;;;;;;5024382;28;20033;-74
2023/05/05 12:20:11;;;;;;;5.15;4.72;;;;;;;;;;5024275;28;20040;-76
2023/05/05 12:22:37;;;;;;;5.15;4.75;;;;;;;;;;5026189;28;20397;-74
2023/05/05 12:25:06;;;;;;;4.63;4.30;;;;;;;;;;5026107;28;20048;-76
2023/05/05 12:27:32;;;;;;;5.07;4.57;;;;;;;;;;5019552;28;20144;-74
2023/05/05 12:30:14;;;;;;;4.82;4.43;;;;;;;;;;4988941;28;20512;-75
2023/05/05 12:32:40;;;;;;;4.57;4.28;;;;;;;;;;5007078;28;20052;-75
2023/05/05 12:35:06;;;;;;;4.25;3.95;;;;;;;;;;5023743;28;20293;-74
2023/05/05 12:37:32;;;;;;;4.43;4.07;;;;;;;;;;5007916;28;20549;-76
2023/05/05 12:39:57;;;;;;;4.53;4.25;;;;;;;;;;5007299;28;20175;-74
2023/05/05 12:42:23;;;;;;;4.95;4.50;;;;;;;;;;5020708;28;20382;-73
2023/05/05 12:44:49;;;;;;;4.90;4.50;;;;;;;;;;5025151;28;20440;-74
2023/05/05 12:47:29;;;;;;;4.50;4.25;;;;;;;;;;5022405;28;20083;-77
2023/05/05 12:49:54;;;;;;;5.13;4.63;;;;;;;;;;5009023;28;20507;-73
2023/05/05 12:52:20;;;;;;;4.50;4.25;;;;;;;;;;5019540;28;20041;-75
2023/05/05 12:54:56;;;;;;;4.78;4.47;;;;;;;;;;5025091;28;20037;-73
2023/05/05 12:57:22;;;;;;;4.90;4.60;;;;;;;;;;5007534;28;20481;-74
2023/05/05 12:59:49;;;;;;;4.60;4.28;;;;;;;;;;5023768;28;20038;-76
2023/05/05 13:02:15;;;;;;;4.93;4.63;;;;;;;;;;5023161;28;20033;-77
2023/05/05 13:04:53;;;;;;;4.95;4.65;;;;;;;;;;5004216;28;20491;-73
2023/05/05 13:07:20;;;;;;;4.97;4.57;;;;;;;;;;5023003;28;20735;-76
2023/05/05 13:09:48;;;;;;;5.10;4.80;;;;;;;;;;5024345;28;20567;-73
2023/05/05 13:12:16;;;;;;;4.72;4.43;;;;;;;;;;5023600;28;20033;-75
2023/05/05 13:14:41;;;;;;;4.55;4.25;;;;;;;;;;5007386;28;20041;-76
2023/05/05 13:17:07;;;;;;;5.22;4.78;;;;;;;;;;5024773;28;20148;-74
2023/05/05 13:19:40;;;;;;;4.30;4.10;;;;;;;;;;5023350;28;20033;-76
2023/05/05 13:22:07;;;;;;;4.30;4.05;;;;;;;;;;5007835;28;20905;-73
2023/05/05 13:24:33;;;;;;;4.50;4.18;;;;;;;;;;5024437;28;21133;-73
2023/05/05 13:26:58;;;;;;;4.32;4.10;;;;;;;;;;5025089;28;20095;-73
2023/05/05 13:29:24;;;;;;;4.57;4.28;;;;;;;;;;5022632;28;20040;-76
2023/05/05 13:31:50;;;;;;;4.35;3.95;;;;;;;;;;5007409;28;20095;-76
2023/05/05 13:34:15;;;;;;;4.13;3.90;;;;;;;;;;5025064;28;20393;-72
2023/05/05 13:36:41;;;;;;;4.32;4.10;;;;;;;;;;5025110;28;20610;-73
2023/05/05 13:39:07;;;;;;;4.40;4.18;;;;;;;;;;5024931;28;20434;-76
2023/05/05 13:41:33;;;;;;;4.60;4.28;;;;;;;;;;5022028;28;20068;-75
2023/05/05 13:43:58;;;;;;;4.50;4.20;;;;;;;;;;5022875;28;20073;-79
2023/05/05 13:46:24;;;;;;;4.63;4.32;;;;;;;;;;5020410;28;20030;-74
2023/05/05 13:48:50;;;;;;;4.75;4.45;;;;;;;;;;5006563;28;20099;-78
2023/05/05 13:51:15;;;;;;;4.57;4.18;;;;;;;;;;5023044;28;20091;-74
2023/05/05 13:53:42;;;;;;;4.95;4.65;;;;;;;;;;5021077;28;20048;-77
2023/05/05 13:56:09;;;;;;;92.63;16.55;;;;;;;;;;5024991;28;20087;-77
2023/05/05 13:58:35;;;;;;;4.95;4.65;;;;;;;;;;5022787;28;20096;-76
2023/05/05 14:01:01;;;;;;;4.80;4.50;;;;;;;;;;5024634;28;20033;-75
2023/05/05 14:03:27;;;;;;;4.80;4.45;;;;;;;;;;5002846;28;20060;-79
2023/05/05 14:05:53;;;;;;;4.55;4.25;;;;;;;;;;5023439;28;20029;-77
2023/05/05 14:08:18;;;;;;;4.40;4.10;;;;;;;;;;5037881;28;20056;-74
2023/05/05 14:10:44;;;;;;;4.38;4.18;;;;;;;;;;5023932;28;20048;-75
2023/05/05 14:13:09;;;;;;;5.25;4.60;;;;;;;;;;5021630;28;20072;-79
2023/05/05 14:15:35;;;;;;;4.50;4.20;;;;;;;;;;5023423;28;20037;-73
2023/05/05 14:18:01;;;;;;;4.30;4.00;;;;;;;;;;5022819;28;20049;-75
2023/05/05 14:20:27;;;;;;;4.80;4.40;;;;;;;;;;5024277;28;20041;-75
2023/05/05 14:22:53;;;;;;;4.95;4.55;;;;;;;;;;5021928;28;20059;-77
2023/05/05 14:25:20;;;;;;;4.57;4.28;;;;;;;;;;5033701;28;20017;-82
2023/05/05 14:27:46;;;;;;;4.70;4.40;;;;;;;;;;5023762;28;20500;-78
2023/05/05 14:30:12;;;;;;;4.70;4.20;;;;;;;;;;5021421;28;20041;-75
2023/05/05 14:32:37;;;;;;;4.63;4.32;;;;;;;;;;5022586;28;20490;-76
2023/05/05 14:35:03;;;;;;;5.20;4.78;;;;;;;;;;5005639;28;20101;-75
2023/05/05 14:37:29;;;;;;;4.70;4.40;;;;;;;;;;5024698;28;20037;-77
2023/05/05 14:39:55;;;;;;;5.10;4.70;;;;;;;;;;5023003;28;20715;-77
2023/05/05 14:42:21;;;;;;;5.63;4.60;;;;;;;;;;5022379;28;20121;-77
2023/05/05 14:44:46;;;;;;;5.70;5.07;;;;;;;;;;5023908;28;20400;-75
2023/05/05 14:47:12;;;;;;;4.70;4.40;;;;;;;;;;5023998;28;20168;-75
2023/05/05 14:49:37;;;;;;;5.30;4.82;;;;;;;;;;5020942;28;20095;-74
2023/05/05 14:52:03;;;;;;;4.43;4.20;;;;;;;;;;5023259;28;20045;-75